sensor_id;sensor_type;location;lat;lon;timestamp;pressure;altitude;pressure_sealevel;temperature;humidity
64292;BME280;50628;51.008;13.658;2023-03-22T00:04:17;99457.00;;;10.61;100.00
64292;BME280;50628;51.008;13.658;2023-03-22T00:09:19;99444.56;;;10.75;100.00
64292;BME280;50628;51.008;13.658;2023-03-22T00:14:21;99452.06;;;10.68;100.00
64292;BME280;50628;51.008;13.658;2023-03-22T00:19:24;99444.16;;;10.70;100.00
64292;BME280;50628;51.008;13.658;2023-03-22T00:24:28;99450.06;;;10.72;100.00
64292;BME280;50628;51.008;13.658;2023-03-22T00:29:30;99437.44;;;10.67;100.00
64292;BME280;50628;51.008;13.658;2023-03-22T00:34:33;99436.88;;;10.73;100.00
64292;BME280;50628;51.008;13.658;2023-03-22T00:39:36;99416.06;;;10.64;100.00
64292;BME280;50628;51.008;13.658;2023-03-22T00:44:39;99412.22;;;10.68;100.00
64292;BME280;50628;51.008;13.658;2023-03-22T00:49:43;99403.75;;;10.75;100.00
64292;BME280;50628;51.008;13.658;2023-03-22T00:54:45;99391.69;;;10.74;100.00
64292;BME280;50628;51.008;13.658;2023-03-22T00:59:47;99396.59;;;10.68;100.00
64292;BME280;50628;51.008;13.658;2023-03-22T01:04:51;99402.19;;;10.63;100.00
64292;BME280;50628;51.008;13.658;2023-03-22T01:09:54;99408.06;;;10.55;100.00
64292;BME280;50628;51.008;13.658;2023-03-22T01:14:55;99392.28;;;10.47;100.00
64292;BME280;50628;51.008;13.658;2023-03-22T01:19:59;99395.38;;;10.31;100.00
64292;BME280;50628;51.008;13.658;2023-03-22T01:25:01;99402.59;;;10.28;100.00
64292;BME280;50628;51.008;13.658;2023-03-22T01:30:04;99394.50;;;10.21;100.00
64292;BME280;50628;51.008;13.658;2023-03-22T01:35:09;99378.56;;;10.14;100.00
64292;BME280;50628;51.008;13.658;2023-03-22T01:40:13;99374.84;;;10.07;100.00
64292;BME280;50628;51.008;13.658;2023-03-22T01:45:35;99369.34;;;10.01;100.00
64292;BME280;50628;51.008;13.658;2023-03-22T01:50:43;99364.53;;;9.96;100.00
64292;BME280;50628;51.008;13.658;2023-03-22T01:55:46;99359.19;;;9.97;100.00
64292;BME280;50628;51.008;13.658;2023-03-22T02:00:57;99356.16;;;9.92;100.00
64292;BME280;50628;51.008;13.658;2023-03-22T02:06:23;99355.09;;;9.74;100.00
64292;BME280;50628;51.008;13.658;2023-03-22T02:11:34;99349.91;;;9.74;100.00
64292;BME280;50628;51.008;13.658;2023-03-22T02:16:49;99358.34;;;9.66;100.00
64292;BME280;50628;51.008;13.658;2023-03-22T02:22:20;99357.34;;;9.58;100.00
64292;BME280;50628;51.008;13.658;2023-03-22T02:27:39;99354.03;;;9.56;100.00
64292;BME280;50628;51.008;13.658;2023-03-22T02:33:04;99367.22;;;9.43;100.00
64292;BME280;50628;51.008;13.658;2023-03-22T02:44:03;99360.06;;;9.24;100.00
64292;BME280;50628;51.008;13.658;2023-03-22T02:49:14;99355.47;;;9.27;100.00
64292;BME280;50628;51.008;13.658;2023-03-22T02:54:20;99355.25;;;9.19;100.00
64292;BME280;50628;51.008;13.658;2023-03-22T02:59:25;99354.84;;;8.59;100.00
64292;BME280;50628;51.008;13.658;2023-03-22T03:04:31;99357.34;;;8.50;100.00
64292;BME280;50628;51.008;13.658;2023-03-22T03:09:35;99349.28;;;8.64;100.00
64292;BME280;50628;51.008;13.658;2023-03-22T03:14:39;99351.97;;;8.74;100.00
64292;BME280;50628;51.008;13.658;2023-03-22T03:19:46;99349.06;;;8.67;100.00
64292;BME280;50628;51.008;13.658;2023-03-22T03:25:00;99342.84;;;8.47;100.00
64292;BME280;50628;51.008;13.658;2023-03-22T03:30:11;99350.94;;;8.54;100.00
64292;BME280;50628;51.008;13.658;2023-03-22T03:35:19;99352.47;;;8.56;100.00
64292;BME280;50628;51.008;13.658;2023-03-22T03:40:25;99349.66;;;8.48;100.00
64292;BME280;50628;51.008;13.658;2023-03-22T03:45:30;99354.94;;;8.35;100.00
64292;BME280;50628;51.008;13.658;2023-03-22T03:50:32;99348.59;;;8.17;100.00
64292;BME280;50628;51.008;13.658;2023-03-22T03:55:35;99355.16;;;7.98;100.00
64292;BME280;50628;51.008;13.658;2023-03-22T04:00:39;99345.97;;;7.83;100.00
64292;BME280;50628;51.008;13.658;2023-03-22T04:06:04;99343.47;;;7.70;100.00
64292;BME280;50628;51.008;13.658;2023-03-22T04:11:10;99349.28;;;7.74;100.00
64292;BME280;50628;51.008;13.658;2023-03-22T04:16:15;99351.03;;;7.85;100.00
64292;BME280;50628;51.008;13.658;2023-03-22T04:21:17;99349.28;;;7.85;100.00
64292;BME280;50628;51.008;13.658;2023-03-22T04:26:28;99343.53;;;8.04;100.00
64292;BME280;50628;51.008;13.658;2023-03-22T04:31:53;99338.22;;;8.06;100.00
64292;BME280;50628;51.008;13.658;2023-03-22T04:37:16;99339.84;;;7.95;100.00
64292;BME280;50628;51.008;13.658;2023-03-22T04:42:35;99342.09;;;7.77;100.00
64292;BME280;50628;51.008;13.658;2023-03-22T04:47:45;99339.56;;;7.53;100.00
64292;BME280;50628;51.008;13.658;2023-03-22T04:52:47;99341.69;;;7.59;100.00
64292;BME280;50628;51.008;13.658;2023-03-22T04:57:49;99341.34;;;7.64;100.00
64292;BME280;50628;51.008;13.658;2023-03-22T05:02:57;99338.53;;;7.67;100.00
64292;BME280;50628;51.008;13.658;2023-03-22T05:08:09;99339.00;;;7.61;100.00
64292;BME280;50628;51.008;13.658;2023-03-22T05:13:15;99337.81;;;7.65;100.00
64292;BME280;50628;51.008;13.658;2023-03-22T05:18:21;99331.63;;;7.79;100.00
64292;BME280;50628;51.008;13.658;2023-03-22T05:23:27;99325.50;;;7.91;100.00
64292;BME280;50628;51.008;13.658;2023-03-22T05:28:30;99334.34;;;8.00;100.00
64292;BME280;50628;51.008;13.658;2023-03-22T05:33:54;99328.09;;;8.25;100.00
64292;BME280;50628;51.008;13.658;2023-03-22T05:38:59;99326.19;;;8.38;100.00
64292;BME280;50628;51.008;13.658;2023-03-22T05:44:01;99334.00;;;8.50;100.00
64292;BME280;50628;51.008;13.658;2023-03-22T05:49:05;99327.00;;;8.61;100.00
64292;BME280;50628;51.008;13.658;2023-03-22T05:54:08;99327.59;;;8.65;100.00
64292;BME280;50628;51.008;13.658;2023-03-22T05:59:16;99328.53;;;8.64;100.00
64292;BME280;50628;51.008;13.658;2023-03-22T06:04:20;99336.50;;;8.83;100.00
64292;BME280;50628;51.008;13.658;2023-03-22T06:09:42;99327.44;;;9.10;100.00
64292;BME280;50628;51.008;13.658;2023-03-22T06:14:52;99335.31;;;9.20;100.00
64292;BME280;50628;51.008;13.658;2023-03-22T06:20:12;99324.06;;;9.30;100.00
64292;BME280;50628;51.008;13.658;2023-03-22T06:25:21;99311.13;;;9.40;100.00
64292;BME280;50628;51.008;13.658;2023-03-22T06:30:24;99316.88;;;9.44;100.00
64292;BME280;50628;51.008;13.658;2023-03-22T06:35:53;99318.09;;;9.61;100.00
64292;BME280;50628;51.008;13.658;2023-03-22T06:41:03;99309.34;;;9.62;100.00
64292;BME280;50628;51.008;13.658;2023-03-22T06:46:05;99313.63;;;9.72;100.00
64292;BME280;50628;51.008;13.658;2023-03-22T06:51:18;99315.09;;;9.86;100.00
64292;BME280;50628;51.008;13.658;2023-03-22T06:56:21;99322.66;;;9.99;100.00
64292;BME280;50628;51.008;13.658;2023-03-22T07:01:26;99323.84;;;10.16;100.00
64292;BME280;50628;51.008;13.658;2023-03-22T07:06:29;99312.50;;;10.27;100.00
64292;BME280;50628;51.008;13.658;2023-03-22T07:11:32;99305.78;;;10.24;100.00
64292;BME280;50628;51.008;13.658;2023-03-22T07:16:36;99314.47;;;10.34;100.00
64292;BME280;50628;51.008;13.658;2023-03-22T07:21:41;99308.09;;;10.48;100.00
64292;BME280;50628;51.008;13.658;2023-03-22T07:26:45;99313.03;;;10.51;100.00
64292;BME280;50628;51.008;13.658;2023-03-22T07:31:52;99317.28;;;10.62;100.00
64292;BME280;50628;51.008;13.658;2023-03-22T07:37:11;99312.19;;;10.60;100.00
64292;BME280;50628;51.008;13.658;2023-03-22T07:42:15;99307.81;;;10.71;100.00
64292;BME280;50628;51.008;13.658;2023-03-22T07:47:19;99312.38;;;10.98;100.00
64292;BME280;50628;51.008;13.658;2023-03-22T07:52:46;99309.38;;;11.22;100.00
64292;BME280;50628;51.008;13.658;2023-03-22T07:57:48;99303.59;;;11.38;100.00
64292;BME280;50628;51.008;13.658;2023-03-22T08:02:51;99305.03;;;11.69;100.00
64292;BME280;50628;51.008;13.658;2023-03-22T08:08:14;99303.16;;;11.99;100.00
64292;BME280;50628;51.008;13.658;2023-03-22T08:13:18;99307.88;;;12.23;100.00
64292;BME280;50628;51.008;13.658;2023-03-22T08:18:20;99302.59;;;12.61;100.00
64292;BME280;50628;51.008;13.658;2023-03-22T08:23:25;99304.31;;;12.70;100.00
64292;BME280;50628;51.008;13.658;2023-03-22T08:28:48;99294.69;;;13.06;100.00
64292;BME280;50628;51.008;13.658;2023-03-22T08:33:51;99297.53;;;13.57;100.00
64292;BME280;50628;51.008;13.658;2023-03-22T08:38:54;99287.06;;;13.83;100.00
64292;BME280;50628;51.008;13.658;2023-03-22T08:44:06;99284.38;;;14.01;100.00
64292;BME280;50628;51.008;13.658;2023-03-22T08:49:10;99283.59;;;14.09;100.00
64292;BME280;50628;51.008;13.658;2023-03-22T08:54:17;99278.06;;;14.12;97.69
64292;BME280;50628;51.008;13.658;2023-03-22T08:59:37;99290.16;;;14.13;92.68
64292;BME280;50628;51.008;13.658;2023-03-22T09:05:06;99279.41;;;14.24;88.59
64292;BME280;50628;51.008;13.658;2023-03-22T09:10:10;99280.59;;;14.38;86.23
64292;BME280;50628;51.008;13.658;2023-03-22T09:15:16;99277.97;;;14.38;86.41
64292;BME280;50628;51.008;13.658;2023-03-22T09:20:22;99269.66;;;14.50;86.71
64292;BME280;50628;51.008;13.658;2023-03-22T09:25:27;99268.06;;;14.66;82.82
64292;BME280;50628;51.008;13.658;2023-03-22T09:30:29;99263.34;;;14.94;80.50
64292;BME280;50628;51.008;13.658;2023-03-22T09:35:33;99250.91;;;15.21;78.34
64292;BME280;50628;51.008;13.658;2023-03-22T09:40:49;99239.91;;;15.25;74.69
64292;BME280;50628;51.008;13.658;2023-03-22T09:45:53;99230.34;;;15.57;76.05
64292;BME280;50628;51.008;13.658;2023-03-22T09:50:55;99220.38;;;15.44;72.50
64292;BME280;50628;51.008;13.658;2023-03-22T09:56:06;99224.59;;;15.70;73.08
64292;BME280;50628;51.008;13.658;2023-03-22T10:01:13;99212.72;;;15.82;73.57
64292;BME280;50628;51.008;13.658;2023-03-22T10:06:18;99214.09;;;15.78;69.43
64292;BME280;50628;51.008;13.658;2023-03-22T10:11:29;99213.13;;;15.54;69.90
64292;BME280;50628;51.008;13.658;2023-03-22T10:16:37;99208.53;;;15.56;71.41
64292;BME280;50628;51.008;13.658;2023-03-22T10:21:40;99224.81;;;15.44;70.51
64292;BME280;50628;51.008;13.658;2023-03-22T10:26:45;99211.41;;;15.30;69.36
64292;BME280;50628;51.008;13.658;2023-03-22T10:31:48;99196.56;;;15.70;71.18
64292;BME280;50628;51.008;13.658;2023-03-22T10:36:51;99195.25;;;15.58;70.33
64292;BME280;50628;51.008;13.658;2023-03-22T10:41:56;99189.03;;;15.59;69.70
64292;BME280;50628;51.008;13.658;2023-03-22T10:47:02;99176.13;;;15.89;69.47
64292;BME280;50628;51.008;13.658;2023-03-22T10:52:17;99185.00;;;15.40;69.31
64292;BME280;50628;51.008;13.658;2023-03-22T10:57:23;99174.78;;;15.53;70.20
64292;BME280;50628;51.008;13.658;2023-03-22T11:02:27;99169.34;;;15.63;69.97
64292;BME280;50628;51.008;13.658;2023-03-22T11:07:32;99162.47;;;15.70;69.40
64292;BME280;50628;51.008;13.658;2023-03-22T11:12:37;99172.25;;;15.76;68.24
64292;BME280;50628;51.008;13.658;2023-03-22T11:17:40;99144.31;;;16.15;66.65
64292;BME280;50628;51.008;13.658;2023-03-22T11:22:43;99140.47;;;16.49;65.64
64292;BME280;50628;51.008;13.658;2023-03-22T11:27:54;99142.38;;;16.78;64.52
64292;BME280;50628;51.008;13.658;2023-03-22T11:33:01;99124.53;;;16.88;62.58
64292;BME280;50628;51.008;13.658;2023-03-22T11:38:03;99106.44;;;16.93;62.62
64292;BME280;50628;51.008;13.658;2023-03-22T11:43:16;99100.78;;;17.41;62.11
64292;BME280;50628;51.008;13.658;2023-03-22T11:48:22;99081.47;;;17.34;60.60
64292;BME280;50628;51.008;13.658;2023-03-22T11:53:26;99082.50;;;17.84;61.27
64292;BME280;50628;51.008;13.658;2023-03-22T11:58:44;99078.00;;;18.42;61.09
64292;BME280;50628;51.008;13.658;2023-03-22T12:03:51;99070.53;;;18.24;59.75
64292;BME280;50628;51.008;13.658;2023-03-22T12:08:58;99065.72;;;18.56;58.53
64292;BME280;50628;51.008;13.658;2023-03-22T12:14:08;99069.84;;;18.65;57.03
64292;BME280;50628;51.008;13.658;2023-03-22T12:19:21;99055.25;;;18.13;58.42
64292;BME280;50628;51.008;13.658;2023-03-22T12:24:30;99052.91;;;18.03;58.66
64292;BME280;50628;51.008;13.658;2023-03-22T12:29:35;99032.94;;;18.65;57.09
64292;BME280;50628;51.008;13.658;2023-03-22T12:34:41;99043.50;;;18.65;53.56
64292;BME280;50628;51.008;13.658;2023-03-22T12:39:49;99037.63;;;18.98;53.67
64292;BME280;50628;51.008;13.658;2023-03-22T12:44:56;99036.94;;;18.83;52.82
64292;BME280;50628;51.008;13.658;2023-03-22T12:50:04;99028.91;;;18.69;53.48
64292;BME280;50628;51.008;13.658;2023-03-22T12:55:07;99029.03;;;18.83;53.53
64292;BME280;50628;51.008;13.658;2023-03-22T13:00:13;99021.22;;;19.64;52.52
64292;BME280;50628;51.008;13.658;2023-03-22T13:05:17;99016.56;;;19.73;50.39
64292;BME280;50628;51.008;13.658;2023-03-22T13:16:19;99016.53;;;19.59;50.48
64292;BME280;50628;51.008;13.658;2023-03-22T13:21:23;99005.81;;;19.67;48.79
64292;BME280;50628;51.008;13.658;2023-03-22T13:26:37;98994.06;;;19.83;49.63
64292;BME280;50628;51.008;13.658;2023-03-22T13:31:43;98991.88;;;19.32;50.05
64292;BME280;50628;51.008;13.658;2023-03-22T13:36:51;98984.81;;;19.33;48.22
64292;BME280;50628;51.008;13.658;2023-03-22T13:42:06;98985.84;;;19.38;48.10
64292;BME280;50628;51.008;13.658;2023-03-22T13:47:29;98973.97;;;19.08;48.18
64292;BME280;50628;51.008;13.658;2023-03-22T13:52:37;98962.09;;;18.84;49.10
64292;BME280;50628;51.008;13.658;2023-03-22T13:57:48;98964.84;;;19.17;49.28
64292;BME280;50628;51.008;13.658;2023-03-22T14:02:59;98947.66;;;18.79;49.95
64292;BME280;50628;51.008;13.658;2023-03-22T14:08:03;98954.22;;;18.90;50.08
64292;BME280;50628;51.008;13.658;2023-03-22T14:13:13;98954.72;;;18.72;50.54
64292;BME280;50628;51.008;13.658;2023-03-22T14:18:28;98950.00;;;19.02;50.39
64292;BME280;50628;51.008;13.658;2023-03-22T14:23:34;98941.16;;;19.37;50.34
64292;BME280;50628;51.008;13.658;2023-03-22T14:28:39;98938.88;;;19.14;49.40
64292;BME280;50628;51.008;13.658;2023-03-22T14:33:42;98936.34;;;18.51;50.19
64292;BME280;50628;51.008;13.658;2023-03-22T14:38:46;98935.34;;;18.52;50.79
64292;BME280;50628;51.008;13.658;2023-03-22T14:43:55;98933.41;;;19.22;50.89
64292;BME280;50628;51.008;13.658;2023-03-22T14:49:01;98944.09;;;19.69;48.57
64292;BME280;50628;51.008;13.658;2023-03-22T14:54:05;98936.94;;;21.01;45.78
64292;BME280;50628;51.008;13.658;2023-03-22T14:59:12;98934.78;;;21.23;45.09
64292;BME280;50628;51.008;13.658;2023-03-22T15:04:16;98944.34;;;21.62;43.62
64292;BME280;50628;51.008;13.658;2023-03-22T15:09:19;98935.72;;;22.23;42.09
64292;BME280;50628;51.008;13.658;2023-03-22T15:14:21;98925.31;;;22.96;40.96
64292;BME280;50628;51.008;13.658;2023-03-22T15:19:30;98910.03;;;23.09;39.04
64292;BME280;50628;51.008;13.658;2023-03-22T15:24:36;98924.94;;;21.93;38.87
64292;BME280;50628;51.008;13.658;2023-03-22T15:29:40;98912.09;;;20.57;40.05
64292;BME280;50628;51.008;13.658;2023-03-22T15:34:45;98919.69;;;19.93;41.29
64292;BME280;50628;51.008;13.658;2023-03-22T15:39:47;98913.38;;;19.41;41.28
64292;BME280;50628;51.008;13.658;2023-03-22T15:44:51;98909.06;;;19.20;41.55
64292;BME280;50628;51.008;13.658;2023-03-22T15:49:57;98912.19;;;18.82;41.36
64292;BME280;50628;51.008;13.658;2023-03-22T15:55:02;98910.06;;;18.64;41.32
64292;BME280;50628;51.008;13.658;2023-03-22T16:00:15;98922.38;;;18.50;42.40
64292;BME280;50628;51.008;13.658;2023-03-22T16:05:20;98932.09;;;18.15;44.93
64292;BME280;50628;51.008;13.658;2023-03-22T16:10:25;98933.38;;;17.98;46.67
64292;BME280;50628;51.008;13.658;2023-03-22T16:15:31;98929.63;;;17.85;47.79
64292;BME280;50628;51.008;13.658;2023-03-22T16:20:34;98931.94;;;17.73;48.93
64292;BME280;50628;51.008;13.658;2023-03-22T16:25:36;98940.72;;;17.59;49.87
64292;BME280;50628;51.008;13.658;2023-03-22T16:30:40;98948.91;;;17.28;53.13
64292;BME280;50628;51.008;13.658;2023-03-22T16:35:44;98942.38;;;16.87;56.06
64292;BME280;50628;51.008;13.658;2023-03-22T16:40:48;98946.81;;;17.02;54.47
64292;BME280;50628;51.008;13.658;2023-03-22T16:45:52;98952.25;;;16.85;53.38
64292;BME280;50628;51.008;13.658;2023-03-22T16:50:55;98961.59;;;16.73;54.57
64292;BME280;50628;51.008;13.658;2023-03-22T16:55:57;98960.59;;;16.44;52.66
64292;BME280;50628;51.008;13.658;2023-03-22T17:00:59;98955.03;;;16.10;52.73
64292;BME280;50628;51.008;13.658;2023-03-22T17:06:03;98962.53;;;15.98;53.21
64292;BME280;50628;51.008;13.658;2023-03-22T17:11:05;98965.84;;;15.92;53.75
64292;BME280;50628;51.008;13.658;2023-03-22T17:16:07;98969.06;;;15.79;53.57
64292;BME280;50628;51.008;13.658;2023-03-22T17:21:12;98973.00;;;15.52;54.98
64292;BME280;50628;51.008;13.658;2023-03-22T17:26:15;98973.25;;;15.42;55.04
64292;BME280;50628;51.008;13.658;2023-03-22T17:31:17;98977.56;;;15.27;55.79
64292;BME280;50628;51.008;13.658;2023-03-22T17:36:21;98984.16;;;15.23;56.79
64292;BME280;50628;51.008;13.658;2023-03-22T17:41:23;98976.84;;;15.10;58.03
64292;BME280;50628;51.008;13.658;2023-03-22T17:46:25;98996.00;;;15.10;59.18
64292;BME280;50628;51.008;13.658;2023-03-22T17:51:30;99005.06;;;15.00;59.08
64292;BME280;50628;51.008;13.658;2023-03-22T17:56:31;99017.66;;;15.04;59.27
64292;BME280;50628;51.008;13.658;2023-03-22T18:01:33;99029.78;;;15.05;56.86
64292;BME280;50628;51.008;13.658;2023-03-22T18:06:37;99028.34;;;14.95;56.90
64292;BME280;50628;51.008;13.658;2023-03-22T18:11:39;99024.28;;;14.84;57.26
64292;BME280;50628;51.008;13.658;2023-03-22T18:16:40;99028.69;;;14.83;58.08
64292;BME280;50628;51.008;13.658;2023-03-22T18:21:51;99038.56;;;14.73;58.79
64292;BME280;50628;51.008;13.658;2023-03-22T18:26:53;99044.13;;;14.70;59.40
64292;BME280;50628;51.008;13.658;2023-03-22T18:31:56;99043.13;;;14.71;59.88
64292;BME280;50628;51.008;13.658;2023-03-22T18:37:00;99048.06;;;14.66;60.27
64292;BME280;50628;51.008;13.658;2023-03-22T18:42:02;99051.03;;;14.63;60.39
64292;BME280;50628;51.008;13.658;2023-03-22T18:47:04;99052.16;;;14.60;60.72
64292;BME280;50628;51.008;13.658;2023-03-22T18:52:09;99060.34;;;14.49;61.69
64292;BME280;50628;51.008;13.658;2023-03-22T18:57:12;99056.91;;;14.40;61.82
64292;BME280;50628;51.008;13.658;2023-03-22T19:02:13;99057.25;;;14.29;62.78
64292;BME280;50628;51.008;13.658;2023-03-22T19:07:17;99057.91;;;14.39;61.90
64292;BME280;50628;51.008;13.658;2023-03-22T19:12:19;99064.78;;;14.32;62.54
64292;BME280;50628;51.008;13.658;2023-03-22T19:17:21;99057.56;;;14.26;63.25
64292;BME280;50628;51.008;13.658;2023-03-22T19:22:24;99053.16;;;14.18;63.47
64292;BME280;50628;51.008;13.658;2023-03-22T19:27:26;99058.72;;;14.15;63.85
64292;BME280;50628;51.008;13.658;2023-03-22T19:32:28;99053.47;;;14.07;65.05
64292;BME280;50628;51.008;13.658;2023-03-22T19:37:31;99053.63;;;13.97;66.47
64292;BME280;50628;51.008;13.658;2023-03-22T19:42:33;99048.59;;;14.04;66.32
64292;BME280;50628;51.008;13.658;2023-03-22T19:47:36;99049.41;;;13.96;66.86
64292;BME280;50628;51.008;13.658;2023-03-22T19:52:39;99054.78;;;13.95;66.99
64292;BME280;50628;51.008;13.658;2023-03-22T19:57:43;99050.34;;;13.95;67.58
64292;BME280;50628;51.008;13.658;2023-03-22T20:02:45;99055.28;;;14.06;66.83
64292;BME280;50628;51.008;13.658;2023-03-22T20:07:49;99058.38;;;13.94;68.04
64292;BME280;50628;51.008;13.658;2023-03-22T20:12:52;99064.06;;;13.73;70.11
64292;BME280;50628;51.008;13.658;2023-03-22T20:17:54;99059.63;;;13.65;70.33
64292;BME280;50628;51.008;13.658;2023-03-22T20:22:57;99046.69;;;13.55;71.68
64292;BME280;50628;51.008;13.658;2023-03-22T20:27:59;99052.09;;;13.54;72.86
64292;BME280;50628;51.008;13.658;2023-03-22T20:33:01;99042.91;;;13.50;73.88
64292;BME280;50628;51.008;13.658;2023-03-22T20:38:04;99039.13;;;13.36;76.04
64292;BME280;50628;51.008;13.658;2023-03-22T20:43:06;99031.59;;;13.33;77.03
64292;BME280;50628;51.008;13.658;2023-03-22T20:48:08;99026.38;;;13.33;76.94
64292;BME280;50628;51.008;13.658;2023-03-22T20:53:12;99023.25;;;13.29;77.58
64292;BME280;50628;51.008;13.658;2023-03-22T20:58:13;99031.41;;;13.26;78.38
64292;BME280;50628;51.008;13.658;2023-03-22T21:03:17;99023.34;;;13.19;78.66
64292;BME280;50628;51.008;13.658;2023-03-22T21:08:21;99040.97;;;13.09;79.76
64292;BME280;50628;51.008;13.658;2023-03-22T21:13:22;99035.06;;;13.07;80.69
64292;BME280;50628;51.008;13.658;2023-03-22T21:18:24;99028.22;;;13.06;81.47
64292;BME280;50628;51.008;13.658;2023-03-22T21:23:28;99023.91;;;12.97;83.22
64292;BME280;50628;51.008;13.658;2023-03-22T21:28:31;99028.69;;;13.02;84.27
64292;BME280;50628;51.008;13.658;2023-03-22T21:33:35;99042.22;;;13.05;84.38
64292;BME280;50628;51.008;13.658;2023-03-22T21:38:38;99044.22;;;13.03;88.78
64292;BME280;50628;51.008;13.658;2023-03-22T21:43:42;99052.41;;;13.08;88.99
64292;BME280;50628;51.008;13.658;2023-03-22T21:48:44;99048.25;;;12.97;94.57
64292;BME280;50628;51.008;13.658;2023-03-22T21:53:47;99040.41;;;12.97;100.00
64292;BME280;50628;51.008;13.658;2023-03-22T21:58:49;99016.97;;;12.80;100.00
64292;BME280;50628;51.008;13.658;2023-03-22T22:03:51;99008.19;;;12.54;100.00
64292;BME280;50628;51.008;13.658;2023-03-22T22:08:54;98997.50;;;12.66;100.00
64292;BME280;50628;51.008;13.658;2023-03-22T22:13:57;98985.75;;;12.70;100.00
64292;BME280;50628;51.008;13.658;2023-03-22T22:18:59;98975.59;;;12.59;100.00
64292;BME280;50628;51.008;13.658;2023-03-22T22:24:03;98973.69;;;12.69;100.00
64292;BME280;50628;51.008;13.658;2023-03-22T22:29:05;98958.91;;;12.77;100.00
64292;BME280;50628;51.008;13.658;2023-03-22T22:34:07;98966.53;;;12.71;100.00
64292;BME280;50628;51.008;13.658;2023-03-22T22:39:11;98965.22;;;12.41;100.00
64292;BME280;50628;51.008;13.658;2023-03-22T22:44:13;98963.03;;;12.28;100.00
64292;BME280;50628;51.008;13.658;2023-03-22T22:49:15;98960.25;;;12.29;100.00
64292;BME280;50628;51.008;13.658;2023-03-22T22:54:19;98955.50;;;12.25;100.00
64292;BME280;50628;51.008;13.658;2023-03-22T22:59:20;98961.13;;;12.38;100.00
64292;BME280;50628;51.008;13.658;2023-03-22T23:04:22;98963.78;;;12.46;100.00
64292;BME280;50628;51.008;13.658;2023-03-22T23:09:26;98966.50;;;12.37;100.00
64292;BME280;50628;51.008;13.658;2023-03-22T23:14:28;98964.91;;;12.44;100.00
64292;BME280;50628;51.008;13.658;2023-03-22T23:19:30;98955.94;;;12.46;100.00
64292;BME280;50628;51.008;13.658;2023-03-22T23:24:39;98941.53;;;12.60;100.00
64292;BME280;50628;51.008;13.658;2023-03-22T23:29:43;98937.63;;;12.72;100.00
64292;BME280;50628;51.008;13.658;2023-03-22T23:34:45;98937.00;;;12.78;100.00
64292;BME280;50628;51.008;13.658;2023-03-22T23:39:50;98940.00;;;12.92;100.00
64292;BME280;50628;51.008;13.658;2023-03-22T23:44:52;98929.91;;;13.05;100.00
64292;BME280;50628;51.008;13.658;2023-03-22T23:49:53;98926.53;;;13.13;100.00
64292;BME280;50628;51.008;13.658;2023-03-22T23:54:57;98929.75;;;13.15;100.00
64292;BME280;50628;51.008;13.658;2023-03-22T23:59:59;98922.59;;;13.17;100.00
